createdAt,value
2022-12-31T00:00:36.425Z,98217.78
2022-12-31T00:03:04.751Z,98218.84
2022-12-31T00:05:33.446Z,98197.22
2022-12-31T00:08:01.850Z,98234.59
2022-12-31T00:10:30.252Z,98222.34
2022-12-31T00:12:58.304Z,98221.50
2022-12-31T00:15:28.738Z,98215.25
2022-12-31T00:17:58.124Z,98208.91
2022-12-31T00:20:26.152Z,98222.72
2022-12-31T00:22:54.270Z,98218.53
2022-12-31T00:25:22.380Z,98222.31
2022-12-31T00:27:50.381Z,98220.91
2022-12-31T00:30:18.367Z,98226.34
2022-12-31T00:32:46.332Z,98218.84
2022-12-31T00:35:15.721Z,98216.25
2022-12-31T00:37:43.733Z,98222.25
2022-12-31T00:40:12.301Z,98235.50
2022-12-31T00:42:40.256Z,98217.31
2022-12-31T00:45:08.885Z,98226.53
2022-12-31T00:47:36.895Z,98225.84
2022-12-31T00:50:05.285Z,98230.72
2022-12-31T00:52:34.737Z,98225.19
2022-12-31T00:55:02.804Z,98232.56
2022-12-31T00:57:33.451Z,98242.50
2022-12-31T01:00:01.492Z,98241.41
2022-12-31T01:02:29.817Z,98236.19
2022-12-31T01:04:58.318Z,98238.34
2022-12-31T01:07:26.388Z,98260.03
2022-12-31T01:09:55.785Z,98237.31
2022-12-31T01:12:25.342Z,98242.66
2022-12-31T01:14:53.400Z,98260.56
2022-12-31T01:17:21.436Z,98274.38
2022-12-31T01:19:51.534Z,98281.75
2022-12-31T01:22:19.597Z,98280.44
2022-12-31T01:24:47.549Z,98277.03
2022-12-31T01:27:16.866Z,98277.19
2022-12-31T01:29:44.904Z,98290.84
2022-12-31T01:32:12.990Z,98290.59
2022-12-31T01:34:41.430Z,98291.44
2022-12-31T01:37:09.494Z,98281.50
2022-12-31T01:39:37.550Z,98281.25
2022-12-31T01:42:05.847Z,98277.13
2022-12-31T01:44:48.599Z,98275.53
2022-12-31T01:47:18.247Z,98276.78
2022-12-31T01:49:49.016Z,98281.75
2022-12-31T01:52:20.506Z,98287.31
2022-12-31T01:54:50.548Z,98286.03
2022-12-31T01:57:18.722Z,98287.31
2022-12-31T01:59:48.144Z,98294.28
2022-12-31T02:02:16.804Z,98293.72
2022-12-31T02:04:44.873Z,98297.31
2022-12-31T02:07:13.053Z,98302.03
2022-12-31T02:09:42.812Z,98297.28
2022-12-31T02:12:11.371Z,98295.47
2022-12-31T02:14:41.264Z,98284.13
2022-12-31T02:17:16.009Z,98295.81
2022-12-31T02:19:56.692Z,98295.13
2022-12-31T02:22:35.345Z,98298.13
2022-12-31T02:25:13.735Z,98297.59
2022-12-31T02:27:48.341Z,98301.03
2022-12-31T02:30:18.687Z,98312.13
2022-12-31T02:32:54.646Z,98301.19
2022-12-31T02:35:25.739Z,98310.41
2022-12-31T02:37:56.687Z,98305.81
2022-12-31T02:40:25.300Z,98303.06
2022-12-31T02:42:55.518Z,98301.22
2022-12-31T02:45:30.066Z,98296.88
2022-12-31T02:48:06.284Z,98294.06
2022-12-31T02:50:40.421Z,98295.91
2022-12-31T02:53:21.217Z,98297.97
2022-12-31T02:55:56.446Z,98312.50
2022-12-31T02:58:51.494Z,98305.13
2022-12-31T03:01:43.914Z,98294.50
2022-12-31T03:04:42.542Z,98299.00
2022-12-31T03:07:14.691Z,98298.56
2022-12-31T03:09:42.707Z,98294.97
2022-12-31T03:12:29.379Z,98299.72
2022-12-31T03:14:57.439Z,98298.66
2022-12-31T03:17:27.211Z,98294.50
2022-12-31T03:20:12.968Z,98299.22
2022-12-31T03:22:43.193Z,98294.25
2022-12-31T03:25:30.372Z,98308.63
2022-12-31T03:27:58.392Z,98300.00
2022-12-31T03:30:26.908Z,98308.38
2022-12-31T03:32:58.645Z,98296.56
2022-12-31T03:35:27.391Z,98320.53
2022-12-31T03:37:55.459Z,98330.91
2022-12-31T03:40:25.132Z,98326.47
2022-12-31T03:42:53.264Z,98316.34
2022-12-31T03:45:21.683Z,98332.38
2022-12-31T03:47:49.764Z,98320.34
2022-12-31T03:50:20.130Z,98319.13
2022-12-31T03:52:48.864Z,98318.56
2022-12-31T03:55:16.870Z,98314.16
2022-12-31T03:57:44.924Z,98320.09
2022-12-31T04:00:14.303Z,98313.75
2022-12-31T04:02:42.390Z,98313.00
2022-12-31T04:05:11.144Z,98318.13
2022-12-31T04:07:40.763Z,98316.56
2022-12-31T04:10:10.822Z,98319.72
2022-12-31T04:12:38.927Z,98318.97
2022-12-31T04:15:08.409Z,98329.59
2022-12-31T04:17:36.524Z,98326.59
2022-12-31T04:20:04.739Z,98321.63
2022-12-31T04:22:32.771Z,98325.78
2022-12-31T04:25:02.101Z,98321.88
2022-12-31T04:27:31.270Z,98327.13
2022-12-31T04:29:59.367Z,98336.34
2022-12-31T04:32:27.400Z,98324.38
2022-12-31T04:34:55.696Z,98342.81
2022-12-31T04:37:23.692Z,98334.59
2022-12-31T04:39:51.863Z,98326.41
2022-12-31T04:42:21.196Z,98331.09
2022-12-31T04:44:49.126Z,98329.84
2022-12-31T04:47:21.833Z,98335.16
2022-12-31T04:49:51.779Z,98348.81
2022-12-31T04:52:19.912Z,98353.16
2022-12-31T04:54:47.992Z,98354.56
2022-12-31T04:57:16.029Z,98351.78
2022-12-31T04:59:45.386Z,98347.41
2022-12-31T05:02:13.629Z,98350.31
2022-12-31T05:04:41.812Z,98350.25
2022-12-31T05:07:11.888Z,98355.25
2022-12-31T05:09:41.988Z,98364.03
2022-12-31T05:12:10.000Z,98359.72
2022-12-31T05:14:38.070Z,98358.34
2022-12-31T05:17:07.409Z,98355.97
2022-12-31T05:19:35.561Z,98366.84
2022-12-31T05:22:20.871Z,98362.06
2022-12-31T05:24:51.835Z,98364.16
2022-12-31T05:27:19.868Z,98355.25
2022-12-31T05:29:47.851Z,98357.34
2022-12-31T05:32:17.522Z,98359.78
2022-12-31T05:34:45.675Z,98363.09
2022-12-31T05:37:13.681Z,98363.38
2022-12-31T05:39:41.735Z,98366.53
2022-12-31T05:42:09.739Z,98346.78
2022-12-31T05:44:37.775Z,98369.81
2022-12-31T05:47:05.915Z,98368.22
2022-12-31T05:49:35.309Z,98366.13
2022-12-31T05:52:03.428Z,98380.22
2022-12-31T05:54:31.511Z,98369.06
2022-12-31T05:56:59.668Z,98376.72
2022-12-31T05:59:27.730Z,98378.44
2022-12-31T06:01:55.675Z,98384.72
2022-12-31T06:04:24.073Z,98382.53
2022-12-31T06:06:53.472Z,98384.59
2022-12-31T06:09:23.979Z,98386.25
2022-12-31T06:11:51.984Z,98390.75
2022-12-31T06:14:19.970Z,98396.44
2022-12-31T06:16:48.016Z,98400.72
2022-12-31T06:19:16.063Z,98401.31
2022-12-31T06:21:44.087Z,98403.25
2022-12-31T06:24:13.661Z,98403.78
2022-12-31T06:26:43.753Z,98408.53
2022-12-31T06:29:11.799Z,98417.91
2022-12-31T06:31:39.872Z,98424.47
2022-12-31T06:34:07.888Z,98417.47
2022-12-31T06:36:35.913Z,98396.09
2022-12-31T06:39:03.955Z,98418.19
2022-12-31T06:41:33.368Z,98417.34
2022-12-31T06:44:01.387Z,98416.72
2022-12-31T06:46:29.483Z,98416.78
2022-12-31T06:48:59.107Z,98410.50
2022-12-31T06:51:27.150Z,98413.94
2022-12-31T06:53:55.177Z,98410.75
2022-12-31T06:56:31.281Z,98411.00
2022-12-31T06:59:04.267Z,98420.19
2022-12-31T07:01:41.940Z,98420.53
2022-12-31T07:04:26.890Z,98417.84
2022-12-31T07:06:57.757Z,98426.03
2022-12-31T07:09:33.243Z,98427.72
2022-12-31T07:12:05.023Z,98425.84
2022-12-31T07:14:37.040Z,98422.31
2022-12-31T07:17:12.453Z,98428.19
2022-12-31T07:19:45.637Z,98426.50
2022-12-31T07:22:15.598Z,98426.09
2022-12-31T07:24:44.431Z,98418.63
2022-12-31T07:27:29.999Z,98432.09
2022-12-31T07:30:03.203Z,98428.19
2022-12-31T07:32:49.165Z,98438.19
2022-12-31T07:35:22.570Z,98430.00
2022-12-31T07:37:56.535Z,98424.50
2022-12-31T07:40:28.927Z,98432.38
2022-12-31T07:43:03.209Z,98428.34
2022-12-31T07:45:34.913Z,98432.03
2022-12-31T07:48:03.345Z,98431.03
2022-12-31T07:50:31.780Z,98443.19
2022-12-31T07:53:00.108Z,98434.41
2022-12-31T07:55:28.153Z,98457.69
2022-12-31T07:57:58.478Z,98455.31
2022-12-31T08:00:26.941Z,98462.19
2022-12-31T08:03:11.477Z,98456.69
2022-12-31T08:05:45.181Z,98458.41
2022-12-31T08:08:19.425Z,98467.22
2022-12-31T08:11:01.684Z,98468.59
2022-12-31T08:13:29.789Z,98480.44
2022-12-31T08:15:58.160Z,98489.38
2022-12-31T08:18:27.875Z,98485.91
2022-12-31T08:20:59.761Z,98492.13
2022-12-31T08:23:33.652Z,98488.25
2022-12-31T08:26:07.662Z,98499.97
2022-12-31T08:28:47.760Z,98491.84
2022-12-31T08:31:18.192Z,98501.34
2022-12-31T08:33:51.421Z,98493.25
2022-12-31T08:36:24.301Z,98498.34
2022-12-31T08:38:56.126Z,98500.56
2022-12-31T08:41:29.144Z,98511.50
2022-12-31T08:44:01.597Z,98521.63
2022-12-31T08:46:32.720Z,98517.78
2022-12-31T08:49:03.325Z,98519.75
2022-12-31T08:51:31.556Z,98524.09
2022-12-31T08:53:59.903Z,98526.81
2022-12-31T08:56:31.767Z,98529.88
2022-12-31T08:59:13.638Z,98529.56
2022-12-31T09:01:51.367Z,98516.91
2022-12-31T09:04:26.806Z,98527.66
2022-12-31T09:06:57.621Z,98520.22
2022-12-31T09:09:33.791Z,98518.13
2022-12-31T09:12:09.590Z,98531.13
2022-12-31T09:14:45.159Z,98539.31
2022-12-31T09:17:25.634Z,98523.19
2022-12-31T09:19:55.435Z,98530.31
2022-12-31T09:22:24.716Z,98540.63
2022-12-31T09:24:52.876Z,98540.16
2022-12-31T09:27:27.546Z,98538.81
2022-12-31T09:30:01.897Z,98545.63
2022-12-31T09:32:35.114Z,98536.06
2022-12-31T09:35:07.838Z,98551.38
2022-12-31T09:37:39.328Z,98551.34
2022-12-31T09:40:16.038Z,98551.69
2022-12-31T09:42:58.680Z,98556.28
2022-12-31T09:45:50.635Z,98551.91
2022-12-31T09:48:51.704Z,98552.56
2022-12-31T09:51:27.628Z,98555.09
2022-12-31T09:54:19.888Z,98556.94
2022-12-31T09:56:57.151Z,98556.19
2022-12-31T09:59:31.160Z,98555.59
2022-12-31T10:02:03.456Z,98542.56
2022-12-31T10:04:41.072Z,98551.84
2022-12-31T10:07:20.081Z,98556.44
2022-12-31T10:09:56.591Z,98553.50
2022-12-31T10:12:37.741Z,98546.91
2022-12-31T10:15:35.824Z,98544.19
2022-12-31T10:18:11.544Z,98547.47
2022-12-31T10:20:50.647Z,98548.56
2022-12-31T10:23:25.480Z,98560.34
2022-12-31T10:26:04.520Z,98545.84
2022-12-31T10:28:39.398Z,98547.19
2022-12-31T10:31:14.465Z,98534.06
2022-12-31T10:33:53.394Z,98535.97
2022-12-31T10:36:28.281Z,98529.44
2022-12-31T10:39:14.378Z,98544.44
2022-12-31T10:42:09.665Z,98529.69
2022-12-31T10:44:55.944Z,98529.88
2022-12-31T10:47:42.593Z,98531.28
2022-12-31T10:50:40.863Z,98536.44
2022-12-31T10:53:28.346Z,98528.28
2022-12-31T10:56:11.343Z,98521.69
2022-12-31T10:59:08.827Z,98528.50
2022-12-31T11:01:47.630Z,98515.66
2022-12-31T11:04:36.700Z,98526.56
2022-12-31T11:07:25.806Z,98534.28
2022-12-31T11:10:13.189Z,98543.81
2022-12-31T11:12:56.129Z,98543.28
2022-12-31T11:15:33.737Z,98535.66
2022-12-31T11:18:08.032Z,98546.81
2022-12-31T11:20:43.872Z,98553.38
2022-12-31T11:23:24.880Z,98551.75
2022-12-31T11:26:02.653Z,98543.16
2022-12-31T11:28:45.999Z,98522.66
2022-12-31T11:31:24.465Z,98525.53
2022-12-31T11:34:02.581Z,98540.50
2022-12-31T11:36:37.493Z,98532.47
2022-12-31T11:39:23.423Z,98533.13
2022-12-31T11:41:58.481Z,98525.41
2022-12-31T11:44:33.638Z,98534.50
2022-12-31T11:47:07.795Z,98526.50
2022-12-31T11:49:42.419Z,98521.59
2022-12-31T11:52:31.711Z,98526.16
2022-12-31T11:55:06.962Z,98520.78
2022-12-31T11:57:35.959Z,98519.47
2022-12-31T12:00:08.634Z,98522.19
2022-12-31T12:02:44.208Z,98520.31
2022-12-31T12:05:16.274Z,98522.97
2022-12-31T12:07:44.943Z,98514.34
2022-12-31T12:10:20.479Z,98513.97
2022-12-31T12:12:48.825Z,98515.47
2022-12-31T12:15:19.209Z,98501.28
2022-12-31T12:17:50.546Z,98506.75
2022-12-31T12:20:22.463Z,98508.84
2022-12-31T12:22:51.417Z,98498.72
2022-12-31T12:25:20.463Z,98504.66
2022-12-31T12:27:48.581Z,98490.47
2022-12-31T12:30:20.383Z,98493.22
2022-12-31T12:32:55.401Z,98486.94
2022-12-31T12:35:30.069Z,98488.56
2022-12-31T12:38:02.904Z,98486.09
2022-12-31T12:40:34.354Z,98485.06
2022-12-31T12:43:03.471Z,98485.66
2022-12-31T12:45:39.178Z,98482.25
2022-12-31T12:48:10.044Z,98485.09
2022-12-31T12:50:40.834Z,98478.28
2022-12-31T12:53:26.005Z,98484.84
2022-12-31T12:55:58.857Z,98486.75
2022-12-31T12:58:34.989Z,98485.94
2022-12-31T13:01:06.411Z,98492.25
2022-12-31T13:04:23.422Z,98477.50
2022-12-31T13:06:47.615Z,98481.56
2022-12-31T13:09:24.997Z,98489.50
2022-12-31T13:12:07.049Z,98485.13
2022-12-31T13:14:41.159Z,98480.22
2022-12-31T13:17:16.385Z,98470.88
2022-12-31T13:19:49.177Z,98465.19
2022-12-31T13:22:23.910Z,98456.13
2022-12-31T13:24:56.731Z,98464.31
2022-12-31T13:27:29.469Z,98457.00
2022-12-31T13:30:01.590Z,98465.44
2022-12-31T13:32:36.551Z,98459.44
2022-12-31T13:35:07.467Z,98452.88
2022-12-31T13:37:40.441Z,98450.94
2022-12-31T13:40:18.905Z,98458.34
2022-12-31T13:42:52.425Z,98451.53
2022-12-31T13:45:25.910Z,98450.97
2022-12-31T13:47:59.657Z,98444.41
2022-12-31T13:50:33.566Z,98449.63
2022-12-31T13:53:05.987Z,98453.13
2022-12-31T13:55:35.326Z,98452.88
2022-12-31T13:58:06.774Z,98448.78
2022-12-31T14:00:38.156Z,98460.78
2022-12-31T14:03:10.715Z,98456.16
2022-12-31T14:05:42.884Z,98459.47
2022-12-31T14:08:12.338Z,98449.59
2022-12-31T14:10:49.730Z,98449.06
2022-12-31T14:13:27.871Z,98453.97
2022-12-31T14:16:05.394Z,98449.59
2022-12-31T14:18:37.374Z,98453.41
2022-12-31T14:21:09.771Z,98457.78
2022-12-31T14:23:43.893Z,98454.47
2022-12-31T14:26:18.273Z,98453.16
2022-12-31T14:28:49.037Z,98447.38
2022-12-31T14:31:25.382Z,98447.94
2022-12-31T14:33:57.618Z,98448.22
2022-12-31T14:36:34.209Z,98456.13
2022-12-31T14:39:11.000Z,98450.94
2022-12-31T14:41:44.424Z,98445.69
2022-12-31T14:44:24.639Z,98456.09
2022-12-31T14:47:00.424Z,98451.41
2022-12-31T14:49:35.380Z,98441.88
2022-12-31T14:52:20.423Z,98451.69
2022-12-31T14:54:58.093Z,98449.22
2022-12-31T14:57:27.784Z,98456.56
2022-12-31T14:59:57.766Z,98456.72
2022-12-31T15:02:29.181Z,98455.97
2022-12-31T15:05:15.667Z,98464.72
2022-12-31T15:07:51.772Z,98463.66
2022-12-31T15:10:28.326Z,98457.09
2022-12-31T15:13:03.193Z,98461.19
2022-12-31T15:15:37.524Z,98462.69
2022-12-31T15:18:12.422Z,98466.25
2022-12-31T15:20:58.273Z,98461.19
2022-12-31T15:23:37.002Z,98463.72
2022-12-31T15:26:08.427Z,98460.03
2022-12-31T15:28:37.758Z,98460.84
2022-12-31T15:31:18.523Z,98465.19
2022-12-31T15:33:58.446Z,98469.75
2022-12-31T15:36:29.983Z,98464.25
2022-12-31T15:39:07.253Z,98467.38
2022-12-31T15:42:10.339Z,98465.03
2022-12-31T15:44:36.999Z,98468.81
2022-12-31T15:47:11.687Z,98470.00
2022-12-31T15:49:42.400Z,98479.00
2022-12-31T15:52:14.633Z,98473.78
2022-12-31T15:54:46.649Z,98482.69
2022-12-31T15:57:18.194Z,98481.41
2022-12-31T15:59:46.701Z,98484.88
2022-12-31T16:02:19.985Z,98480.78
2022-12-31T16:04:48.381Z,98477.47
2022-12-31T16:07:16.724Z,98477.47
2022-12-31T16:09:48.564Z,98486.41
2022-12-31T16:12:21.660Z,98482.41
2022-12-31T16:14:51.630Z,98483.72
2022-12-31T16:17:26.166Z,98476.91
2022-12-31T16:19:54.268Z,98497.25
2022-12-31T16:22:26.079Z,98499.19
2022-12-31T16:25:28.922Z,98498.03
2022-12-31T16:27:43.817Z,98479.13
2022-12-31T16:30:20.058Z,98493.72
2022-12-31T16:32:51.083Z,98500.47
2022-12-31T16:35:24.161Z,98500.78
2022-12-31T16:38:02.225Z,98494.13
2022-12-31T16:40:30.762Z,98506.84
2022-12-31T16:43:00.127Z,98505.19
2022-12-31T16:45:32.990Z,98491.13
2022-12-31T16:48:14.564Z,98503.75
2022-12-31T16:50:45.386Z,98501.13
2022-12-31T16:53:17.481Z,98500.00
2022-12-31T16:55:52.681Z,98508.75
2022-12-31T16:58:25.446Z,98504.78
2022-12-31T17:00:53.830Z,98507.88
2022-12-31T17:03:23.347Z,98507.19
2022-12-31T17:05:55.982Z,98508.75
2022-12-31T17:08:25.608Z,98517.91
2022-12-31T17:10:54.068Z,98511.84
2022-12-31T17:13:27.963Z,98506.38
2022-12-31T17:16:00.248Z,98512.19
2022-12-31T17:18:31.504Z,98510.16
2022-12-31T17:21:06.779Z,98505.13
2022-12-31T17:23:39.551Z,98501.19
2022-12-31T17:26:09.959Z,98510.16
2022-12-31T17:28:44.663Z,98513.44
2022-12-31T17:31:29.819Z,98512.88
2022-12-31T17:34:06.225Z,98510.97
2022-12-31T17:36:34.439Z,98513.38
2022-12-31T17:39:11.691Z,98513.44
2022-12-31T17:41:39.833Z,98510.47
2022-12-31T17:44:16.737Z,98507.34
2022-12-31T17:46:45.249Z,98512.97
2022-12-31T17:49:15.953Z,98506.34
2022-12-31T17:51:47.787Z,98515.06
2022-12-31T17:54:16.404Z,98497.00
2022-12-31T17:56:44.867Z,98522.84
2022-12-31T17:59:16.615Z,98522.59
2022-12-31T18:01:44.938Z,98529.19
2022-12-31T18:04:13.692Z,98518.41
2022-12-31T18:06:41.845Z,98517.13
2022-12-31T18:09:10.209Z,98522.47
2022-12-31T18:11:39.113Z,98521.41
2022-12-31T18:14:07.471Z,98492.69
2022-12-31T18:16:36.828Z,98523.22
2022-12-31T18:19:08.586Z,98525.69
2022-12-31T18:21:39.041Z,98530.44
2022-12-31T18:24:12.642Z,98530.19
2022-12-31T18:26:40.670Z,98520.97
2022-12-31T18:29:14.495Z,98528.25
2022-12-31T18:31:45.028Z,98527.75
2022-12-31T18:34:14.038Z,98534.53
2022-12-31T18:36:42.222Z,98528.31
2022-12-31T18:39:12.571Z,98533.38
2022-12-31T18:41:42.125Z,98537.59
2022-12-31T18:44:11.407Z,98534.13
2022-12-31T18:46:39.415Z,98540.91
2022-12-31T18:49:09.071Z,98542.88
2022-12-31T18:51:37.150Z,98543.34
2022-12-31T18:54:05.681Z,98541.72
2022-12-31T18:56:33.708Z,98548.72
2022-12-31T18:59:02.517Z,98551.75
2022-12-31T19:01:31.887Z,98550.78
2022-12-31T19:04:01.133Z,98542.81
2022-12-31T19:06:30.988Z,98547.81
2022-12-31T19:09:00.836Z,98553.63
2022-12-31T19:11:29.382Z,98563.84
2022-12-31T19:13:57.387Z,98561.00
2022-12-31T19:16:25.575Z,98560.69
2022-12-31T19:18:53.661Z,98565.66
2022-12-31T19:21:22.654Z,98568.63
2022-12-31T19:23:52.291Z,98563.25
2022-12-31T19:26:21.740Z,98569.78
2022-12-31T19:28:52.085Z,98558.19
2022-12-31T19:31:22.461Z,98561.97
2022-12-31T19:33:50.467Z,98558.34
2022-12-31T19:36:19.699Z,98561.88
2022-12-31T19:38:48.191Z,98566.94
2022-12-31T19:41:18.887Z,98555.13
2022-12-31T19:43:47.574Z,98563.78
2022-12-31T19:46:16.721Z,98564.22
2022-12-31T19:48:45.178Z,98569.78
2022-12-31T19:51:16.067Z,98566.47
2022-12-31T19:53:44.863Z,98571.66
2022-12-31T19:56:13.674Z,98575.91
2022-12-31T19:58:43.184Z,98577.81
2022-12-31T20:01:18.394Z,98569.25
2022-12-31T20:03:46.534Z,98567.53
2022-12-31T20:06:15.091Z,98575.25
2022-12-31T20:08:44.237Z,98551.91
2022-12-31T20:11:13.818Z,98567.06
2022-12-31T20:13:43.298Z,98560.50
2022-12-31T20:16:12.884Z,98572.16
2022-12-31T20:18:42.086Z,98565.78
2022-12-31T20:21:11.161Z,98558.00
2022-12-31T20:23:39.172Z,98568.00
2022-12-31T20:26:07.316Z,98568.88
2022-12-31T20:28:36.626Z,98570.97
2022-12-31T20:31:07.755Z,98568.03
2022-12-31T20:33:35.938Z,98564.94
2022-12-31T20:36:04.210Z,98544.94
2022-12-31T20:38:32.537Z,98572.88
2022-12-31T20:41:03.766Z,98573.22
2022-12-31T20:43:32.472Z,98572.72
2022-12-31T20:46:01.096Z,98567.09
2022-12-31T20:48:32.176Z,98569.09
2022-12-31T20:51:00.171Z,98567.88
2022-12-31T20:53:28.352Z,98579.69
2022-12-31T20:55:58.697Z,98577.31
2022-12-31T20:58:26.833Z,98581.59
2022-12-31T21:00:54.875Z,98583.06
2022-12-31T21:04:03.004Z,98586.69
2022-12-31T21:06:12.771Z,98594.25
2022-12-31T21:08:40.804Z,98590.44
2022-12-31T21:11:29.596Z,98583.25
2022-12-31T21:13:57.321Z,98586.53
2022-12-31T21:16:28.164Z,98583.13
2022-12-31T21:18:58.747Z,98589.50
2022-12-31T21:21:28.488Z,98588.81
2022-12-31T21:23:56.539Z,98608.69
2022-12-31T21:26:24.605Z,98603.41
2022-12-31T21:28:53.631Z,98594.69
2022-12-31T21:31:24.075Z,98607.28
2022-12-31T21:33:52.268Z,98574.44
2022-12-31T21:36:20.385Z,98606.91
2022-12-31T21:38:49.767Z,98613.41
2022-12-31T21:41:35.379Z,98605.38
2022-12-31T21:44:03.621Z,98610.56
2022-12-31T21:46:32.001Z,98605.50
2022-12-31T21:49:01.329Z,98610.22
2022-12-31T21:51:29.786Z,98619.38
2022-12-31T21:54:01.795Z,98620.44
2022-12-31T21:56:28.906Z,98623.16
2022-12-31T22:02:59.099Z,98624.53
2022-12-31T22:05:27.882Z,98634.44
2022-12-31T22:07:58.435Z,98633.28
2022-12-31T22:10:26.547Z,98626.59
2022-12-31T22:12:54.608Z,98607.19
2022-12-31T22:15:22.684Z,98616.34
2022-12-31T22:17:52.145Z,98622.59
2022-12-31T22:20:29.353Z,98620.94
2022-12-31T22:22:57.593Z,98627.28
2022-12-31T22:25:25.664Z,98628.19
2022-12-31T22:28:27.623Z,98628.53
2022-12-31T22:30:41.858Z,98630.47
2022-12-31T22:33:11.245Z,98634.94
2022-12-31T22:35:39.285Z,98637.44
2022-12-31T22:38:11.916Z,98635.09
2022-12-31T22:40:40.489Z,98641.47
2022-12-31T22:43:08.540Z,98637.13
2022-12-31T22:45:37.200Z,98643.34
2022-12-31T22:48:05.546Z,98642.75
2022-12-31T22:50:36.893Z,98655.72
2022-12-31T22:53:04.943Z,98655.50
2022-12-31T22:55:33.020Z,98660.28
2022-12-31T22:58:01.066Z,98658.03
2022-12-31T23:00:37.889Z,98664.28
2022-12-31T23:03:06.010Z,98665.38
2022-12-31T23:05:34.872Z,98663.72
2022-12-31T23:08:12.838Z,98653.97
2022-12-31T23:11:00.955Z,98655.13
2022-12-31T23:13:50.485Z,98654.44
2022-12-31T23:16:36.496Z,98646.88
2022-12-31T23:19:22.301Z,98652.28
2022-12-31T23:22:10.695Z,98656.91
2022-12-31T23:24:40.367Z,98655.59
2022-12-31T23:27:09.088Z,98655.13
2022-12-31T23:29:45.614Z,98658.53
2022-12-31T23:32:14.621Z,98667.59
2022-12-31T23:34:43.522Z,98670.88
2022-12-31T23:37:11.692Z,98655.34
2022-12-31T23:39:41.312Z,98657.97
2022-12-31T23:42:09.700Z,98664.47
2022-12-31T23:44:37.675Z,98661.25
2022-12-31T23:47:05.833Z,98671.88
2022-12-31T23:49:33.794Z,98677.44
2022-12-31T23:52:01.878Z,98670.94
2022-12-31T23:54:29.933Z,98677.88
2022-12-31T23:56:59.305Z,98673.97
2022-12-31T23:59:27.374Z,98676.16
